Time;durP1;ratioP1;P1;durP2;ratioP2;P2;SDS_P1;SDS_P2;PMS_P1;PMS_P2;Temp;Humidity;BMP_temperature;BMP_pressure;BME280_temperature;BME280_humidity;BME280_pressure;Samples;Min_cycle;Max_cycle;Signal;HPM_P1;HPM_P2
2021/07/06 00:00:03;;;;;;;2.00;1.35;;;;;;;14.53;100.00;95487.19;1017691;29;20876;-70
2021/07/06 00:00:35;;;;;;;2.00;1.40;;;;;;;14.53;100.00;95489.03;1017543;29;20702;-70
2021/07/06 00:01:05;;;;;;;1.80;1.30;;;;;;;14.54;100.00;95487.94;1011133;29;20419;-70
2021/07/06 00:01:35;;;;;;;2.55;1.85;;;;;;;14.43;100.00;95468.84;1008494;29;20035;-70
2021/07/06 00:02:06;;;;;;;2.42;1.55;;;;;;;14.51;100.00;95486.69;1010225;29;20482;-70
2021/07/06 00:02:36;;;;;;;2.17;1.55;;;;;;;14.51;100.00;95484.03;1015075;29;20065;-70
2021/07/06 00:03:07;;;;;;;1.83;1.40;;;;;;;14.50;100.00;95484.31;1018364;29;20035;-69
2021/07/06 00:03:37;;;;;;;4.60;1.52;;;;;;;14.44;100.00;95480.19;1015242;29;20024;-69
2021/07/06 00:04:08;;;;;;;4.13;1.80;;;;;;;14.47;100.00;95484.91;1011234;29;20035;-67
2021/07/06 00:04:38;;;;;;;5.50;1.50;;;;;;;14.46;100.00;95488.63;1011127;29;20033;-69
2021/07/06 00:05:09;;;;;;;3.88;1.30;;;;;;;14.46;100.00;95485.97;1010953;29;20032;-68
2021/07/06 00:05:40;;;;;;;3.38;1.42;;;;;;;14.48;100.00;95481.16;1011137;29;20024;-70
2021/07/06 00:06:10;;;;;;;2.42;1.65;;;;;;;14.45;100.00;95481.75;1011440;29;20024;-69
2021/07/06 00:06:41;;;;;;;3.13;1.20;;;;;;;14.45;100.00;95481.75;1008617;29;20028;-69
2021/07/06 00:07:12;;;;;;;1.70;1.60;;;;;;;14.37;100.00;95472.66;1007110;29;20036;-69
2021/07/06 00:07:42;;;;;;;2.80;1.25;;;;;;;14.34;100.00;95476.66;1010295;29;20189;-70
2021/07/06 00:08:13;;;;;;;1.95;1.33;;;;;;;14.41;100.00;95481.56;1014341;29;20160;-70
2021/07/06 00:08:43;;;;;;;2.92;1.15;;;;;;;14.40;100.00;95487.91;1010982;29;20491;-70
2021/07/06 00:09:14;;;;;;;2.30;1.70;;;;;;;14.39;100.00;95481.88;1011004;29;20416;-70
2021/07/06 00:09:47;;;;;;;3.15;1.20;;;;;;;14.40;100.00;95487.91;1007332;29;20040;-70
2021/07/06 00:10:19;;;;;;;1.65;1.20;;;;;;;14.41;100.00;95491.34;1014348;29;20584;-70
2021/07/06 00:10:52;;;;;;;6.53;1.40;;;;;;;14.39;100.00;95484.50;1011461;29;20025;-70
2021/07/06 00:11:22;;;;;;;2.78;1.60;;;;;;;14.29;100.00;95481.28;1016098;29;20085;-70
2021/07/06 00:11:53;;;;;;;3.38;1.35;;;;;;;14.33;100.00;95485.66;1016443;29;20474;-70
2021/07/06 00:12:23;;;;;;;4.68;1.73;;;;;;;14.27;100.00;95478.91;1019411;29;20065;-70
2021/07/06 00:12:54;;;;;;;3.40;1.27;;;;;;;14.31;100.00;95487.81;1019881;29;20613;-70
2021/07/06 00:13:24;;;;;;;1.33;1.20;;;;;;;14.32;100.00;95484.13;1021385;29;20049;-70
2021/07/06 00:13:55;;;;;;;3.00;1.40;;;;;;;14.32;100.00;95484.13;1016173;29;20105;-70
2021/07/06 00:14:26;;;;;;;3.15;1.40;;;;;;;14.31;100.00;95490.44;1019132;29;20038;-72
2021/07/06 00:14:56;;;;;;;1.95;1.65;;;;;;;14.29;100.00;95484.69;1018957;29;20096;-70
2021/07/06 00:15:27;;;;;;;6.93;1.67;;;;;;;14.28;100.00;95484.97;1022324;29;20061;-70
2021/07/06 00:15:57;;;;;;;2.58;1.40;;;;;;;14.25;100.00;95489.00;1022794;29;20584;-70
2021/07/06 00:16:27;;;;;;;4.05;1.58;;;;;;;14.25;100.00;95488.19;1018830;29;20028;-70
2021/07/06 00:16:58;;;;;;;1.23;1.13;;;;;;;14.25;100.00;95482.91;1018523;29;20044;-70
2021/07/06 00:17:28;;;;;;;3.13;1.58;;;;;;;14.22;100.00;95484.28;1018052;29;20071;-70
2021/07/06 00:17:59;;;;;;;4.30;1.40;;;;;;;14.21;100.00;95484.56;1015041;29;20057;-70
2021/07/06 00:18:32;;;;;;;3.55;1.30;;;;;;;14.20;100.00;95489.06;1019341;29;20052;-70
2021/07/06 00:19:02;;;;;;;5.57;2.22;;;;;;;14.21;100.00;95487.22;1018933;29;20035;-70
2021/07/06 00:19:33;;;;;;;3.72;1.58;;;;;;;14.20;100.00;95493.56;1018936;29;20031;-71
2021/07/06 00:20:08;;;;;;;3.45;1.38;;;;;;;14.15;100.00;95494.44;1018510;29;20039;-66
2021/07/06 00:20:38;;;;;;;2.35;1.40;;;;;;;14.12;100.00;95489.75;1015981;29;20057;-70
2021/07/06 00:21:09;;;;;;;2.95;1.42;;;;;;;14.03;100.00;95481.72;1018903;29;20095;-70
2021/07/06 00:21:42;;;;;;;2.22;1.70;;;;;;;14.10;100.00;95491.88;1014971;29;20502;-70
2021/07/06 00:22:12;;;;;;;1.95;1.45;;;;;;;14.09;100.00;95487.69;1017919;29;20111;-70
2021/07/06 00:22:43;;;;;;;3.05;1.50;;;;;;;14.09;100.00;95490.34;1014973;29;20077;-70
2021/07/06 00:23:13;;;;;;;2.53;1.45;;;;;;;14.06;100.00;95490.91;1015109;29;20091;-70
2021/07/06 00:23:44;;;;;;;1.67;1.23;;;;;;;14.04;100.00;95485.13;1016638;29;20031;-70
2021/07/06 00:24:14;;;;;;;1.83;1.40;;;;;;;14.08;100.00;95494.03;1014987;29;20521;-70
2021/07/06 00:24:45;;;;;;;2.17;1.40;;;;;;;14.05;100.00;95482.22;1011038;29;20036;-70
2021/07/06 00:25:16;;;;;;;8.73;2.33;;;;;;;14.08;100.00;95492.19;1014682;29;20684;-70
2021/07/06 00:25:46;;;;;;;2.75;1.33;;;;;;;14.06;100.00;95490.91;1014987;29;20036;-70
2021/07/06 00:26:17;;;;;;;2.15;1.60;;;;;;;13.96;100.00;95485.81;1015212;29;20084;-70
2021/07/06 00:26:48;;;;;;;2.10;1.67;;;;;;;14.01;100.00;95491.75;1016816;29;20890;-70
2021/07/06 00:27:21;;;;;;;2.55;1.33;;;;;;;13.96;100.00;95485.81;1013600;29;20328;-70
2021/07/06 00:27:53;;;;;;;3.03;1.92;;;;;;;13.93;100.00;95486.38;1015497;29;20493;-70
2021/07/06 00:28:23;;;;;;;4.50;1.75;;;;;;;13.94;100.00;95493.22;1019663;29;20087;-70
2021/07/06 00:28:54;;;;;;;3.63;1.77;;;;;;;13.91;100.00;95492.72;1022173;29;20035;-68
2021/07/06 00:29:24;;;;;;;1.70;1.60;;;;;;;13.90;100.00;95493.03;1022824;29;20026;-70
2021/07/06 00:29:55;;;;;;;2.15;1.80;;;;;;;13.70;100.00;95465.13;1022612;29;20032;-70
2021/07/06 00:30:25;;;;;;;1.70;1.60;;;;;;;13.87;100.00;95488.31;1018748;29;20031;-70
2021/07/06 00:30:59;;;;;;;2.28;1.73;;;;;;;13.86;100.00;95487.53;1019037;29;20027;-70
2021/07/06 00:31:29;;;;;;;2.80;2.00;;;;;;;13.78;100.00;95480.31;1018830;29;20024;-70
2021/07/06 00:32:00;;;;;;;3.00;1.80;;;;;;;13.82;100.00;95480.50;1020974;28;20027;-69
2021/07/06 00:32:30;;;;;;;3.70;2.17;;;;;;;13.78;100.00;95482.94;1011066;29;20037;-70
2021/07/06 00:33:00;;;;;;;2.00;1.80;;;;;;;13.84;100.00;95488.91;1014933;29;20564;-70
2021/07/06 00:33:31;;;;;;;2.25;1.70;;;;;;;13.82;100.00;95486.56;1011093;29;20363;-70
2021/07/06 00:34:01;;;;;;;3.38;2.00;;;;;;;13.78;100.00;95487.41;1010160;29;20036;-70
2021/07/06 00:34:32;;;;;;;2.35;1.80;;;;;;;13.77;100.00;95496.41;1014870;29;20025;-70
2021/07/06 00:35:04;;;;;;;2.47;1.70;;;;;;;13.74;100.00;95492.47;1015216;29;20467;-70
2021/07/06 00:35:34;;;;;;;3.22;1.90;;;;;;;13.69;100.00;95487.28;1014797;29;20024;-70
2021/07/06 00:36:04;;;;;;;1.95;1.60;;;;;;;13.65;100.00;95487.09;1015048;29;20264;-70
2021/07/06 00:36:35;;;;;;;2.35;2.00;;;;;;;13.63;100.00;95491.06;1014981;29;20051;-70
2021/07/06 00:37:05;;;;;;;6.05;2.53;;;;;;;13.63;100.00;95489.22;1014458;29;20039;-69
2021/07/06 00:37:36;;;;;;;3.55;1.60;;;;;;;13.62;100.00;95486.88;1014543;29;20039;-70
2021/07/06 00:38:06;;;;;;;5.55;2.03;;;;;;;13.61;100.00;95491.34;1010949;29;20116;-71
2021/07/06 00:38:37;;;;;;;3.42;2.15;;;;;;;13.57;100.00;95490.38;1014967;29;20039;-71
2021/07/06 00:39:07;;;;;;;4.10;1.90;;;;;;;13.48;100.00;95476.28;1014824;29;20032;-71
2021/07/06 00:39:38;;;;;;;4.40;1.80;;;;;;;13.54;100.00;95488.28;1014825;29;20052;-70
2021/07/06 00:40:09;;;;;;;1.95;1.77;;;;;;;13.54;100.00;95482.25;1010842;29;20020;-71
2021/07/06 00:40:41;;;;;;;4.43;1.88;;;;;;;13.55;100.00;95489.09;1009348;29;20036;-71
2021/07/06 00:41:11;;;;;;;6.13;2.50;;;;;;;13.52;100.00;95492.31;1011297;29;20027;-71
2021/07/06 00:41:42;;;;;;;4.22;2.22;;;;;;;13.49;100.00;95482.34;1013474;29;20488;-70
2021/07/06 00:42:12;;;;;;;2.50;1.75;;;;;;;13.47;100.00;95477.34;1013724;29;20043;-70
2021/07/06 00:42:44;;;;;;;6.70;2.17;;;;;;;13.48;100.00;95480.75;1014784;29;20032;-71
2021/07/06 00:43:14;;;;;;;1.95;1.75;;;;;;;13.43;100.00;95477.13;1010911;29;20392;-70
2021/07/06 00:43:45;;;;;;;5.72;2.30;;;;;;;13.50;100.00;95492.59;1011151;29;20032;-71
2021/07/06 00:44:16;;;;;;;2.13;1.92;;;;;;;13.49;100.00;95484.97;1010393;29;20028;-71
2021/07/06 00:44:47;;;;;;;3.42;2.45;;;;;;;13.46;100.00;95488.97;1011687;29;20690;-70
2021/07/06 00:45:17;;;;;;;3.08;1.90;;;;;;;13.47;100.00;95492.38;1011282;29;20028;-71
2021/07/06 00:45:48;;;;;;;8.30;2.53;;;;;;;13.48;100.00;95486.03;1011001;29;20178;-71
2021/07/06 00:46:18;;;;;;;4.15;2.00;;;;;;;13.47;100.00;95489.75;1011130;29;20771;-70
2021/07/06 00:46:49;;;;;;;3.22;2.13;;;;;;;13.44;100.00;95485.81;1011181;29;20032;-71
2021/07/06 00:47:33;;;;;;;6.05;2.05;;;;;;;13.46;100.00;95491.59;1010401;29;20028;-71
2021/07/06 00:48:04;;;;;;;7.78;2.00;;;;;;;13.47;100.00;95482.63;1016839;29;20405;-70
2021/07/06 00:48:34;;;;;;;6.38;2.63;;;;;;;13.47;100.00;95481.84;1018890;29;20262;-70
2021/07/06 00:49:05;;;;;;;3.15;2.08;;;;;;;13.51;100.00;95485.44;1012463;29;20017;-71
2021/07/06 00:49:35;;;;;;;4.18;1.80;;;;;;;13.53;100.00;95485.97;1014947;29;20035;-70
2021/07/06 00:50:08;;;;;;;2.42;2.20;;;;;;;13.51;100.00;95485.44;1015006;29;20072;-70
2021/07/06 00:50:38;;;;;;;5.03;2.20;;;;;;;13.55;100.00;95483.84;1015699;29;20463;-69
2021/07/06 00:51:09;;;;;;;3.47;2.10;;;;;;;13.54;100.00;95477.75;1022540;28;20038;-71
2021/07/06 00:51:39;;;;;;;2.95;1.85;;;;;;;13.60;100.00;95483.75;1022977;29;20477;-70
2021/07/06 00:52:10;;;;;;;6.53;2.25;;;;;;;13.61;100.00;95482.66;1020652;29;20023;-70
2021/07/06 00:52:40;;;;;;;4.18;2.30;;;;;;;13.61;100.00;95482.66;1018164;29;20520;-70
2021/07/06 00:53:11;;;;;;;2.80;1.92;;;;;;;13.63;100.00;95483.16;1018955;29;20596;-70
2021/07/06 00:53:41;;;;;;;3.30;1.92;;;;;;;13.66;100.00;95485.22;1014900;29;20028;-70
2021/07/06 00:54:12;;;;;;;3.83;1.85;;;;;;;13.66;100.00;95487.88;1011454;29;20427;-70
2021/07/06 00:54:43;;;;;;;3.22;2.17;;;;;;;13.71;100.00;95487.78;1014893;29;20035;-70
2021/07/06 00:55:13;;;;;;;2.97;2.05;;;;;;;13.63;100.00;95476.03;1015163;29;20016;-70
2021/07/06 00:55:44;;;;;;;3.67;2.00;;;;;;;13.64;100.00;95472.31;1018823;29;20099;-71
2021/07/06 00:56:14;;;;;;;2.92;2.13;;;;;;;13.75;100.00;95485.34;1014726;29;20418;-70
2021/07/06 00:56:45;;;;;;;5.13;2.17;;;;;;;13.76;100.00;95489.56;1010980;29;20032;-70
2021/07/06 00:57:28;;;;;;;5.85;2.25;;;;;;;13.74;100.00;95479.28;1010014;29;20779;-71
2021/07/06 00:58:01;;;;;;;2.28;2.08;;;;;;;13.77;100.00;95473.44;1014561;29;20089;-69
2021/07/06 00:58:32;;;;;;;2.28;2.05;;;;;;;13.78;100.00;95482.94;1011109;29;20303;-70
2021/07/06 00:59:02;;;;;;;5.43;2.08;;;;;;;13.80;100.00;95480.00;1012855;29;20394;-69
2021/07/06 00:59:33;;;;;;;1.98;1.77;;;;;;;13.77;100.00;95478.72;1014776;29;20585;-69
2021/07/06 01:00:15;;;;;;;2.03;1.75;;;;;;;13.76;100.00;95477.16;1014871;29;20108;-70
2021/07/06 01:00:46;;;;;;;2.08;1.90;;;;;;;13.76;100.00;95476.38;1022595;29;20031;-71
2021/07/06 01:01:16;;;;;;;4.90;2.20;;;;;;;13.77;100.00;95480.56;1021364;29;20271;-70
2021/07/06 01:01:48;;;;;;;4.65;2.13;;;;;;;13.74;100.00;95474.00;1022438;29;20071;-70
2021/07/06 01:02:19;;;;;;;4.05;1.85;;;;;;;13.78;100.00;95475.03;1021735;29;20070;-70
2021/07/06 01:02:50;;;;;;;2.58;2.00;;;;;;;13.73;100.00;95469.81;1018701;29;20036;-70
2021/07/06 01:03:21;;;;;;;7.18;2.10;;;;;;;13.77;100.00;95473.44;1021863;29;20837;-70
2021/07/06 01:03:52;;;;;;;2.40;2.08;;;;;;;13.75;100.00;95467.69;1018868;29;20271;-70
2021/07/06 01:04:22;;;;;;;3.40;1.80;;;;;;;13.82;100.00;95470.72;1022517;28;20035;-71
2021/07/06 01:04:53;;;;;;;2.42;1.88;;;;;;;13.82;100.00;95470.72;1022250;28;20031;-70
2021/07/06 01:05:24;;;;;;;3.28;1.90;;;;;;;13.84;100.00;95471.22;1022613;29;20030;-71
2021/07/06 01:05:54;;;;;;;2.03;1.83;;;;;;;13.83;100.00;95467.00;1018851;29;20029;-70
2021/07/06 01:06:25;;;;;;;3.50;1.92;;;;;;;13.82;100.00;95469.97;1018371;29;20286;-71
2021/07/06 01:06:55;;;;;;;2.47;1.85;;;;;;;13.83;100.00;95467.00;1015004;29;20140;-70
2021/07/06 01:07:26;;;;;;;3.35;1.95;;;;;;;13.85;100.00;95469.38;1021907;29;20031;-71
2021/07/06 01:07:56;;;;;;;4.18;2.05;;;;;;;13.87;100.00;95461.94;1022973;28;20031;-70
2021/07/06 01:08:27;;;;;;;7.28;2.38;;;;;;;13.89;100.00;95470.34;1016216;29;20066;-71
2021/07/06 01:08:57;;;;;;;3.15;1.80;;;;;;;13.85;100.00;95456.97;1014959;29;20084;-71
2021/07/06 01:09:28;;;;;;;4.75;2.03;;;;;;;13.90;100.00;95462.16;1015132;29;20080;-70
2021/07/06 01:09:58;;;;;;;4.40;2.05;;;;;;;13.89;100.00;95459.81;1010824;29;20044;-70
2021/07/06 01:10:31;;;;;;;2.70;2.20;;;;;;;13.89;100.00;95463.22;1015362;29;20035;-71
2021/07/06 01:11:02;;;;;;;3.72;2.08;;;;;;;13.88;100.00;95464.31;1011003;29;20033;-69
2021/07/06 01:11:34;;;;;;;4.50;1.90;;;;;;;13.81;100.00;95453.31;1010774;29;20639;-69
2021/07/06 01:12:05;;;;;;;3.72;1.92;;;;;;;13.86;100.00;95461.16;1011523;29;20041;-70
2021/07/06 01:12:35;;;;;;;8.52;2.30;;;;;;;13.85;100.00;95459.59;1010822;29;20288;-70
2021/07/06 01:13:06;;;;;;;4.38;2.42;;;;;;;13.79;100.00;95460.75;1011309;29;20032;-70
2021/07/06 01:13:36;;;;;;;2.92;1.58;;;;;;;13.85;100.00;95464.09;1014997;29;20032;-70
2021/07/06 01:14:07;;;;;;;4.10;2.10;;;;;;;13.82;100.00;95460.19;1015072;29;20031;-70
2021/07/06 01:14:38;;;;;;;8.82;2.42;;;;;;;13.83;100.00;95459.09;1015371;29;20040;-68
2021/07/06 01:15:11;;;;;;;1.98;1.67;;;;;;;13.81;100.00;95452.53;1009383;29;20036;-70
2021/07/06 01:15:41;;;;;;;2.58;1.58;;;;;;;13.86;100.00;95455.13;1011237;29;20040;-70
2021/07/06 01:16:12;;;;;;;3.03;2.25;;;;;;;13.84;100.00;95463.28;1015741;29;20323;-70
2021/07/06 01:16:46;;;;;;;2.92;1.95;;;;;;;13.83;100.00;95460.97;1018866;29;20098;-70
2021/07/06 01:17:25;;;;;;;1.75;1.65;;;;;;;13.82;100.00;95454.91;1021536;29;20031;-70
2021/07/06 01:18:13;;;;;;;1.65;1.55;;;;;;;13.75;100.00;95443.97;1014946;29;20260;-71
2021/07/06 01:18:43;;;;;;;2.88;1.80;;;;;;;13.75;100.00;95438.69;1018119;29;20283;-71
2021/07/06 01:19:14;;;;;;;6.60;1.83;;;;;;;13.76;100.00;95440.25;1014911;29;20917;-71
2021/07/06 01:19:45;;;;;;;2.83;2.25;;;;;;;13.81;100.00;95448.03;1014785;29;20285;-71
2021/07/06 01:20:17;;;;;;;5.55;2.03;;;;;;;13.77;100.00;95433.09;1008801;29;20028;-72
2021/07/06 01:20:52;;;;;;;5.65;2.00;;;;;;;13.82;100.00;95444.34;1014881;29;20032;-71
2021/07/06 01:21:23;;;;;;;3.63;2.05;;;;;;;13.78;100.00;95439.94;1011233;29;20033;-71
2021/07/06 01:21:57;;;;;;;3.70;2.05;;;;;;;13.77;100.00;95439.16;1010385;29;20341;-71
2021/07/06 01:22:31;;;;;;;2.15;1.80;;;;;;;13.80;100.00;95443.84;1012457;29;20129;-70
2021/07/06 01:23:03;;;;;;;3.75;2.13;;;;;;;13.80;100.00;95441.22;1015103;29;20287;-71
2021/07/06 01:23:33;;;;;;;3.28;1.83;;;;;;;13.78;100.00;95434.66;1016503;29;20381;-71
2021/07/06 01:24:07;;;;;;;2.03;1.73;;;;;;;13.80;100.00;95440.44;1014645;29;20272;-70
2021/07/06 01:24:37;;;;;;;4.07;2.13;;;;;;;13.78;100.00;95443.38;1014872;29;20032;-71
2021/07/06 01:25:08;;;;;;;3.10;2.00;;;;;;;13.79;100.00;95436.25;1014351;29;20275;-70
2021/07/06 01:25:39;;;;;;;5.25;2.08;;;;;;;13.77;100.00;95436.53;1011749;29;20036;-70
2021/07/06 01:26:10;;;;;;;3.38;2.13;;;;;;;13.75;100.00;95433.41;1015072;29;20093;-70
2021/07/06 01:26:43;;;;;;;3.40;2.10;;;;;;;13.66;100.00;95428.00;1018696;29;20409;-70
2021/07/06 01:27:14;;;;;;;5.38;2.88;;;;;;;13.74;100.00;95431.81;1014998;29;20052;-70
2021/07/06 01:27:44;;;;;;;4.45;2.60;;;;;;;13.70;100.00;95430.06;1015065;29;20303;-69
2021/07/06 01:28:15;;;;;;;5.72;2.70;;;;;;;13.76;100.00;95434.19;1014804;29;20020;-71
2021/07/06 01:28:45;;;;;;;3.80;2.83;;;;;;;13.74;100.00;95431.81;1015267;29;20036;-71
2021/07/06 01:29:16;;;;;;;4.68;3.22;;;;;;;13.75;100.00;95436.03;1010899;29;20029;-71
2021/07/06 01:29:46;;;;;;;6.68;2.63;;;;;;;13.68;100.00;95417.97;1011174;29;20029;-70
2021/07/06 01:30:17;;;;;;;4.38;2.58;;;;;;;13.77;100.00;95430.47;1010662;29;20319;-68
2021/07/06 01:30:48;;;;;;;6.10;3.00;;;;;;;13.71;100.00;95427.13;1011035;29;20021;-71
2021/07/06 01:31:19;;;;;;;5.68;2.97;;;;;;;13.75;100.00;95430.78;1015172;29;20017;-70
2021/07/06 01:31:50;;;;;;;2.63;2.38;;;;;;;13.78;100.00;95432.03;1014651;29;20055;-70
2021/07/06 01:32:20;;;;;;;8.93;2.90;;;;;;;13.70;100.00;95414.25;1009961;29;20851;-70
2021/07/06 01:32:51;;;;;;;4.90;2.50;;;;;;;13.78;100.00;95424.91;1007159;29;20028;-71
2021/07/06 01:33:26;;;;;;;4.43;2.40;;;;;;;13.79;100.00;95423.84;1011211;29;20391;-70
2021/07/06 01:33:56;;;;;;;6.35;3.20;;;;;;;13.79;100.00;95429.13;1014242;29;20029;-71
2021/07/06 01:34:27;;;;;;;4.65;2.38;;;;;;;13.79;100.00;95423.84;1015332;29;20268;-70
2021/07/06 01:34:57;;;;;;;6.40;2.28;;;;;;;13.76;100.00;95419.13;1014319;29;20503;-70
2021/07/06 01:35:28;;;;;;;6.60;2.20;;;;;;;13.77;100.00;95425.19;1014356;29;20502;-70
2021/07/06 01:36:02;;;;;;;4.25;2.42;;;;;;;13.77;100.00;95425.19;1014851;29;20020;-70
2021/07/06 01:36:33;;;;;;;2.85;2.03;;;;;;;13.75;100.00;95414.94;1014697;29;20395;-71
2021/07/06 01:37:03;;;;;;;4.97;2.30;;;;;;;13.68;100.00;95406.59;1010588;29;20256;-71
2021/07/06 01:37:34;;;;;;;3.95;2.10;;;;;;;13.72;100.00;95420.81;1006242;29;20062;-70
2021/07/06 01:38:05;;;;;;;2.60;2.40;;;;;;;13.65;100.00;95408.00;1007181;29;20576;-71
2021/07/06 01:38:36;;;;;;;3.67;2.40;;;;;;;13.68;100.00;95417.16;1018730;29;20015;-70
2021/07/06 01:39:09;;;;;;;3.33;2.38;;;;;;;13.67;100.00;95412.97;1018282;29;20024;-70
2021/07/06 01:39:39;;;;;;;3.30;2.83;;;;;;;13.64;100.00;95416.94;1010945;29;20627;-70
2021/07/06 01:40:11;;;;;;;2.25;1.92;;;;;;;13.62;100.00;95413.84;1010755;29;20407;-71
2021/07/06 01:40:41;;;;;;;2.92;2.30;;;;;;;13.62;100.00;95418.34;1014917;29;20498;-70
2021/07/06 01:41:12;;;;;;;7.85;2.08;;;;;;;13.57;100.00;95405.22;1018904;29;20272;-71
2021/07/06 01:41:43;;;;;;;7.10;2.50;;;;;;;13.60;100.00;95409.91;1018765;29;20044;-70
2021/07/06 01:42:23;;;;;;;2.53;2.30;;;;;;;13.56;100.00;95409.72;1013968;29;20042;-70
2021/07/06 01:42:53;;;;;;;2.60;1.83;;;;;;;13.52;100.00;95398.19;1014722;29;20814;-71
2021/07/06 01:43:24;;;;;;;4.20;2.25;;;;;;;13.52;100.00;95407.97;1016235;29;20032;-70
2021/07/06 01:43:54;;;;;;;6.78;2.20;;;;;;;13.50;100.00;95404.81;1017461;29;20023;-70
2021/07/06 01:44:26;;;;;;;2.53;2.20;;;;;;;13.49;100.00;95413.81;1016291;29;20032;-70
2021/07/06 01:45:23;;;;;;;4.10;2.28;;;;;;;13.43;100.00;95413.88;1011991;29;20449;-70
2021/07/06 01:45:54;;;;;;;4.85;2.10;;;;;;;13.40;100.00;95405.75;1015320;29;20287;-70
2021/07/06 01:46:25;;;;;;;8.35;2.65;;;;;;;13.39;100.00;95404.97;1022296;29;20347;-70
2021/07/06 01:46:55;;;;;;;3.95;2.78;;;;;;;13.37;100.00;95401.84;1014388;29;21211;-71
2021/07/06 01:47:26;;;;;;;2.17;1.90;;;;;;;13.37;100.00;95406.34;1012356;29;20593;-70
2021/07/06 01:47:58;;;;;;;3.28;2.45;;;;;;;13.37;100.00;95409.75;1014648;29;20057;-70
2021/07/06 01:48:29;;;;;;;2.30;2.10;;;;;;;13.35;100.00;95409.28;1014981;29;20676;-70
2021/07/06 01:48:59;;;;;;;3.33;2.22;;;;;;;13.35;100.00;95408.50;1018041;29;20024;-69
2021/07/06 01:49:32;;;;;;;5.05;2.40;;;;;;;13.33;100.00;95408.00;1018485;29;20031;-70
2021/07/06 01:50:04;;;;;;;2.75;2.03;;;;;;;13.32;100.00;95409.84;1018466;29;20019;-70
2021/07/06 01:50:36;;;;;;;3.72;2.00;;;;;;;13.26;100.00;95400.44;1018449;29;20276;-71
2021/07/06 01:51:07;;;;;;;3.70;1.95;;;;;;;13.30;100.00;95411.19;1010465;29;20822;-70
2021/07/06 01:51:41;;;;;;;6.70;2.65;;;;;;;13.30;100.00;95414.59;1006732;29;20262;-71
2021/07/06 01:52:14;;;;;;;2.95;2.28;;;;;;;13.28;100.00;95414.13;1006647;29;20033;-71
2021/07/06 01:52:46;;;;;;;3.05;2.08;;;;;;;13.20;100.00;95406.84;1003467;29;20271;-71
2021/07/06 01:53:18;;;;;;;4.20;2.33;;;;;;;13.27;100.00;95407.28;1007829;29;20317;-71
2021/07/06 01:53:48;;;;;;;4.90;2.47;;;;;;;13.28;100.00;95408.88;1010670;29;20336;-71
2021/07/06 01:54:19;;;;;;;2.67;2.20;;;;;;;13.28;100.00;95411.50;1013062;29;20790;-71
2021/07/06 01:54:51;;;;;;;2.40;2.08;;;;;;;13.29;100.00;95404.38;1010958;29;20029;-70
2021/07/06 01:55:25;;;;;;;2.33;2.05;;;;;;;13.27;100.00;95407.28;1010258;29;20028;-71
2021/07/06 01:55:56;;;;;;;5.32;2.35;;;;;;;13.27;100.00;95406.50;1009471;29;20292;-71
2021/07/06 01:56:26;;;;;;;4.03;2.03;;;;;;;13.23;100.00;95401.00;1012145;29;20264;-68
2021/07/06 01:56:57;;;;;;;2.25;1.90;;;;;;;13.27;100.00;95417.03;1019124;29;20667;-70
2021/07/06 01:57:27;;;;;;;3.58;2.20;;;;;;;13.25;100.00;95406.81;1010025;29;20418;-71
2021/07/06 01:57:58;;;;;;;5.13;2.00;;;;;;;13.24;100.00;95407.84;1010576;29;20028;-69
2021/07/06 01:58:31;;;;;;;4.82;2.22;;;;;;;13.24;100.00;95407.84;1010732;29;20033;-71
2021/07/06 01:59:02;;;;;;;4.57;2.38;;;;;;;13.24;100.00;95409.69;1013158;29;20265;-70
2021/07/06 01:59:32;;;;;;;3.95;2.10;;;;;;;13.22;100.00;95412.59;1018376;29;20263;-71
2021/07/06 02:00:04;;;;;;;2.25;2.05;;;;;;;13.22;100.00;95409.97;1021585;28;20039;-71
2021/07/06 02:00:37;;;;;;;2.45;2.00;;;;;;;13.22;100.00;95407.34;1026374;28;20031;-71
2021/07/06 02:01:08;;;;;;;2.38;2.13;;;;;;;13.21;100.00;95408.38;1026382;28;20269;-70
2021/07/06 02:01:38;;;;;;;3.50;2.17;;;;;;;13.19;100.00;95405.28;1019611;29;20860;-70
2021/07/06 02:02:12;;;;;;;3.50;1.98;;;;;;;13.16;100.00;95401.34;1015761;29;20599;-71
2021/07/06 02:02:42;;;;;;;2.75;2.05;;;;;;;13.13;100.00;95395.88;1013633;29;20190;-70
2021/07/06 02:03:13;;;;;;;2.55;2.13;;;;;;;13.19;100.00;95406.06;1015993;29;21174;-71
2021/07/06 02:03:43;;;;;;;3.30;2.03;;;;;;;13.16;100.00;95405.84;1007741;29;20053;-70
2021/07/06 02:04:17;;;;;;;5.03;1.60;;;;;;;13.17;100.00;95404.78;1010287;29;20032;-71
2021/07/06 02:04:49;;;;;;;2.20;1.80;;;;;;;13.16;100.00;95398.72;1006187;29;20843;-70
2021/07/06 02:05:34;;;;;;;3.22;2.20;;;;;;;13.11;100.00;95393.53;1017897;29;20067;-70
2021/07/06 02:06:04;;;;;;;5.15;2.13;;;;;;;13.16;100.00;95400.56;1008969;29;20281;-70
2021/07/06 02:06:35;;;;;;;2.47;1.90;;;;;;;13.16;100.00;95400.56;1007697;29;20269;-70
2021/07/06 02:07:05;;;;;;;2.10;1.90;;;;;;;13.16;100.00;95400.56;1014182;29;20035;-71
2021/07/06 02:07:36;;;;;;;3.08;2.10;;;;;;;13.14;100.00;95405.34;1014375;29;20411;-70
2021/07/06 02:08:14;;;;;;;2.80;2.00;;;;;;;13.07;100.00;95392.53;1018569;29;20035;-70
2021/07/06 02:08:45;;;;;;;3.45;2.03;;;;;;;13.11;100.00;95404.09;1007884;29;20528;-70
2021/07/06 02:09:16;;;;;;;2.13;1.85;;;;;;;13.09;100.00;95395.66;1010571;29;20281;-70
2021/07/06 02:09:49;;;;;;;4.45;1.90;;;;;;;13.11;100.00;95403.28;1010465;29;20344;-70
2021/07/06 02:10:19;;;;;;;3.53;2.15;;;;;;;13.10;100.00;95401.72;1015387;29;20032;-70
2021/07/06 02:10:51;;;;;;;4.25;2.05;;;;;;;13.10;100.00;95396.44;1018411;29;20275;-70
2021/07/06 02:11:22;;;;;;;3.55;1.73;;;;;;;13.10;100.00;95396.44;1022431;29;20367;-70
2021/07/06 02:11:52;;;;;;;3.28;2.17;;;;;;;13.09;100.00;95392.25;1015641;29;20266;-70
2021/07/06 02:12:23;;;;;;;3.70;2.25;;;;;;;13.13;100.00;95398.50;1013608;29;20087;-68
2021/07/06 02:12:57;;;;;;;4.10;1.98;;;;;;;13.07;100.00;95383.84;1010719;29;20036;-70
2021/07/06 02:13:27;;;;;;;3.28;2.00;;;;;;;13.14;100.00;95392.94;1014539;29;20035;-70
2021/07/06 02:14:00;;;;;;;2.60;1.70;;;;;;;13.16;100.00;95392.66;1018283;29;20766;-70
2021/07/06 02:14:36;;;;;;;3.08;1.80;;;;;;;13.15;100.00;95394.53;1019356;29;20043;-70
2021/07/06 02:15:08;;;;;;;2.85;2.15;;;;;;;13.18;100.00;95399.22;1019131;29;20287;-70
2021/07/06 02:15:38;;;;;;;2.60;2.40;;;;;;;13.18;100.00;95398.44;1022480;29;20349;-70
2021/07/06 02:16:10;;;;;;;2.38;2.13;;;;;;;13.18;100.00;95390.53;1018313;29;21047;-70
2021/07/06 02:16:41;;;;;;;2.55;2.10;;;;;;;13.20;100.00;95394.44;1014195;29;20064;-69
2021/07/06 02:17:14;;;;;;;5.07;2.13;;;;;;;13.22;100.00;95391.53;1011025;29;20313;-69
2021/07/06 02:17:44;;;;;;;2.45;2.05;;;;;;;13.23;100.00;95395.72;1011568;29;20047;-70
2021/07/06 02:18:22;;;;;;;4.43;1.92;;;;;;;13.16;100.00;95379.50;1013028;29;20380;-70
2021/07/06 02:18:53;;;;;;;3.08;1.88;;;;;;;13.26;100.00;95397.81;1015351;29;20027;-71
2021/07/06 02:19:23;;;;;;;5.75;2.20;;;;;;;13.26;100.00;95395.19;1016208;29;20647;-70
2021/07/06 02:19:54;;;;;;;4.90;2.22;;;;;;;13.26;100.00;95395.19;1016027;29;20097;-70
2021/07/06 02:20:33;;;;;;;4.13;2.17;;;;;;;13.26;100.00;95395.19;1011764;29;20043;-70
2021/07/06 02:21:04;;;;;;;2.03;1.88;;;;;;;13.19;100.00;95384.19;1015275;29;20276;-70
2021/07/06 02:21:34;;;;;;;4.65;2.25;;;;;;;13.27;100.00;95386.19;1015336;29;20275;-70
2021/07/06 02:22:05;;;;;;;1.92;1.75;;;;;;;13.28;100.00;95392.25;1011071;29;20029;-69
2021/07/06 02:22:36;;;;;;;4.28;2.17;;;;;;;13.29;100.00;95399.88;1009882;29;20044;-70
2021/07/06 02:23:06;;;;;;;4.20;2.08;;;;;;;13.28;100.00;95395.69;1007709;29;20029;-70
2021/07/06 02:23:37;;;;;;;4.45;1.75;;;;;;;13.30;100.00;95393.53;1010852;29;20359;-70
2021/07/06 02:24:07;;;;;;;3.55;2.65;;;;;;;13.27;100.00;95388.06;1019122;29;20036;-70
2021/07/06 02:24:38;;;;;;;2.97;1.55;;;;;;;13.30;100.00;95396.16;1015458;29;20020;-70
2021/07/06 02:25:09;;;;;;;2.85;1.80;;;;;;;13.31;100.00;95392.47;1015387;29;20080;-70
2021/07/06 02:25:39;;;;;;;4.15;2.22;;;;;;;13.32;100.00;95393.25;1010970;29;20112;-71
2021/07/06 02:26:10;;;;;;;3.38;1.77;;;;;;;13.32;100.00;95394.03;1007616;29;20334;-70